createdAt,value
2022-11-27T00:00:33.049Z,0
2022-11-27T00:02:44.006Z,0
2022-11-27T00:03:49.015Z,0
2022-11-27T00:05:57.964Z,0
2022-11-27T00:08:04.646Z,0
2022-11-27T00:10:11.321Z,0
2022-11-27T00:11:14.381Z,0
2022-11-27T00:13:19.736Z,0
2022-11-27T00:15:26.582Z,0
2022-11-27T00:17:33.945Z,0
2022-11-27T00:18:37.167Z,0
2022-11-27T00:20:45.688Z,0
2022-11-27T00:22:52.438Z,0
2022-11-27T00:24:59.231Z,0
2022-11-27T00:26:01.721Z,0
2022-11-27T00:28:08.292Z,0
2022-11-27T00:30:14.316Z,0
2022-11-27T00:31:17.708Z,0
2022-11-27T00:32:20.614Z,0
2022-11-27T00:33:24.040Z,0
2022-11-27T00:35:29.904Z,0
2022-11-27T00:36:32.958Z,0
2022-11-27T00:37:36.710Z,0
2022-11-27T00:38:41.687Z,0
2022-11-27T00:40:47.231Z,0
2022-11-27T00:41:51.677Z,0
2022-11-27T00:42:54.771Z,0
2022-11-27T00:43:57.839Z,0
2022-11-27T00:46:04.526Z,0
2022-11-27T00:48:12.002Z,0
2022-11-27T00:50:17.724Z,0
2022-11-27T00:51:20.537Z,0
2022-11-27T00:53:26.844Z,0
2022-11-27T00:55:32.806Z,0
2022-11-27T00:56:35.297Z,0
2022-11-27T00:57:37.812Z,0
2022-11-27T00:58:40.097Z,0
2022-11-27T01:00:46.214Z,0
2022-11-27T01:01:49.383Z,0
2022-11-27T01:02:52.385Z,0
2022-11-27T01:03:55.520Z,0
2022-11-27T01:06:01.750Z,0
2022-11-27T01:08:08.191Z,0
2022-11-27T01:09:11.343Z,0
2022-11-27T01:11:16.252Z,0
2022-11-27T01:13:22.718Z,0
2022-11-27T01:15:28.153Z,0
2022-11-27T01:16:32.453Z,0
2022-11-27T01:18:38.333Z,0
2022-11-27T01:20:44.189Z,0
2022-11-27T01:22:50.698Z,0
2022-11-27T01:23:53.820Z,0
2022-11-27T01:26:00.487Z,0
2022-11-27T01:28:05.985Z,0
2022-11-27T01:29:08.681Z,0
2022-11-27T01:30:11.732Z,0
2022-11-27T01:31:14.927Z,0
2022-11-27T01:33:21.546Z,0
2022-11-27T01:35:27.236Z,0
2022-11-27T01:36:30.502Z,0
2022-11-27T01:38:35.833Z,0
2022-11-27T01:40:43.194Z,0
2022-11-27T01:41:45.991Z,0
2022-11-27T01:42:49.039Z,0
2022-11-27T01:43:51.456Z,0
2022-11-27T01:45:58.309Z,0
2022-11-27T01:47:02.078Z,0
2022-11-27T01:49:07.271Z,0
2022-11-27T01:51:12.192Z,0
2022-11-27T01:52:15.003Z,0
2022-11-27T01:54:21.161Z,0
2022-11-27T01:56:28.273Z,0
2022-11-27T01:57:31.678Z,0
2022-11-27T01:58:34.463Z,0
2022-11-27T01:59:37.601Z,0
2022-11-27T02:01:44.169Z,0
2022-11-27T02:02:47.806Z,0
2022-11-27T02:03:50.878Z,0
2022-11-27T02:04:53.850Z,0
2022-11-27T02:07:00.109Z,0
2022-11-27T02:08:03.471Z,0
2022-11-27T02:09:07.202Z,0
2022-11-27T02:10:10.298Z,0
2022-11-27T02:12:16.280Z,0
2022-11-27T02:13:18.856Z,0
2022-11-27T02:15:24.752Z,0
2022-11-27T02:16:27.431Z,0
2022-11-27T02:18:32.257Z,0
2022-11-27T02:20:37.668Z,0
2022-11-27T02:21:40.646Z,0
2022-11-27T02:22:43.336Z,0
2022-11-27T02:23:45.757Z,0
2022-11-27T02:24:49.108Z,0
2022-11-27T02:25:52.013Z,0
2022-11-27T02:26:55.437Z,0
2022-11-27T02:29:01.074Z,0
2022-11-27T02:30:04.511Z,0
2022-11-27T02:31:07.585Z,0
2022-11-27T02:32:10.773Z,0
2022-11-27T02:34:15.796Z,0
2022-11-27T02:35:19.148Z,0
2022-11-27T02:37:25.532Z,0
2022-11-27T02:39:32.409Z,0
2022-11-27T02:40:35.758Z,0
2022-11-27T02:42:42.928Z,0
2022-11-27T02:44:49.413Z,0
2022-11-27T02:45:52.133Z,0
2022-11-27T02:47:58.624Z,0
2022-11-27T02:50:04.770Z,0
2022-11-27T02:52:10.226Z,0
2022-11-27T02:53:13.265Z,0
2022-11-27T02:55:18.823Z,0
2022-11-27T02:57:25.742Z,0
2022-11-27T02:58:30.092Z,0
2022-11-27T03:00:36.134Z,0
2022-11-27T03:02:43.198Z,0
2022-11-27T03:04:49.166Z,0
2022-11-27T03:05:52.632Z,0
2022-11-27T03:07:58.002Z,0
2022-11-27T03:10:04.881Z,0
2022-11-27T03:11:07.583Z,0
2022-11-27T03:13:14.085Z,0
2022-11-27T03:15:21.721Z,0
2022-11-27T03:16:25.935Z,0
2022-11-27T03:18:31.773Z,0
2022-11-27T03:20:37.115Z,0
2022-11-27T03:21:40.259Z,0
2022-11-27T03:23:46.719Z,0
2022-11-27T03:25:52.304Z,0
2022-11-27T03:27:57.580Z,0
2022-11-27T03:28:59.881Z,0
2022-11-27T03:31:14.632Z,0
2022-11-27T03:33:20.790Z,0
2022-11-27T03:35:26.437Z,0
2022-11-27T03:36:29.480Z,0
2022-11-27T03:38:35.038Z,0
2022-11-27T03:40:40.506Z,0
2022-11-27T03:41:43.202Z,0
2022-11-27T03:43:48.466Z,0
2022-11-27T03:44:50.972Z,0
2022-11-27T03:46:00.629Z,0
2022-11-27T03:47:04.830Z,0
2022-11-27T03:49:16.081Z,0
2022-11-27T03:50:19.273Z,0
2022-11-27T03:52:24.834Z,0
2022-11-27T03:53:27.896Z,0
2022-11-27T03:55:33.840Z,0
2022-11-27T03:57:39.186Z,0
2022-11-27T03:58:41.730Z,0
2022-11-27T04:00:47.755Z,0
2022-11-27T04:02:55.792Z,0
2022-11-27T04:03:59.373Z,0
2022-11-27T04:06:06.645Z,0
2022-11-27T04:08:11.539Z,0
2022-11-27T04:10:17.366Z,0
2022-11-27T04:11:19.789Z,0
2022-11-27T04:13:24.999Z,0
2022-11-27T04:15:30.198Z,0
2022-11-27T04:17:36.634Z,0
2022-11-27T04:18:40.561Z,0
2022-11-27T04:20:45.922Z,0
2022-11-27T04:22:51.904Z,0
2022-11-27T04:24:58.386Z,0
2022-11-27T04:26:01.375Z,0
2022-11-27T04:28:07.799Z,0
2022-11-27T04:30:14.173Z,0
2022-11-27T04:32:20.355Z,0
2022-11-27T04:33:23.937Z,0
2022-11-27T04:35:29.783Z,0
2022-11-27T04:36:41.045Z,0
2022-11-27T04:37:43.943Z,0
2022-11-27T04:39:50.067Z,0
2022-11-27T04:40:53.202Z,0
2022-11-27T04:41:56.327Z,0
2022-11-27T04:42:59.306Z,0
2022-11-27T04:45:04.893Z,0
2022-11-27T04:46:08.184Z,0
2022-11-27T04:47:11.252Z,0
2022-11-27T04:48:14.237Z,0
2022-11-27T04:50:21.575Z,0
2022-11-27T04:51:24.550Z,0
2022-11-27T04:52:28.351Z,0
2022-11-27T04:53:30.828Z,0
2022-11-27T04:55:36.308Z,0
2022-11-27T04:56:38.999Z,0
2022-11-27T04:57:42.597Z,0
2022-11-27T04:58:45.091Z,0
2022-11-27T05:00:51.549Z,0
2022-11-27T05:02:57.995Z,0
2022-11-27T05:04:01.199Z,0
2022-11-27T05:05:10.973Z,0
2022-11-27T05:06:14.385Z,0
2022-11-27T05:08:20.831Z,0
2022-11-27T05:10:26.411Z,0
2022-11-27T05:11:29.388Z,0
2022-11-27T05:13:35.304Z,0
2022-11-27T05:15:42.014Z,0
2022-11-27T05:17:48.142Z,0
2022-11-27T05:18:50.838Z,0
2022-11-27T05:20:56.958Z,0
2022-11-27T05:23:03.215Z,0
2022-11-27T05:25:08.936Z,0
2022-11-27T05:26:11.457Z,0
2022-11-27T05:28:16.725Z,0
2022-11-27T05:30:22.175Z,0
2022-11-27T05:32:28.881Z,0
2022-11-27T05:33:31.937Z,0
2022-11-27T05:35:37.475Z,0
2022-11-27T05:37:50.591Z,0
2022-11-27T05:38:54.333Z,0
2022-11-27T05:40:03.704Z,0
2022-11-27T05:42:09.640Z,0
2022-11-27T05:43:11.782Z,0
2022-11-27T05:45:17.599Z,0
2022-11-27T05:47:23.896Z,0
2022-11-27T05:48:26.878Z,0
2022-11-27T05:49:29.962Z,0
2022-11-27T05:50:32.942Z,0
2022-11-27T05:52:39.999Z,0
2022-11-27T05:54:46.816Z,0
2022-11-27T05:55:49.694Z,0
2022-11-27T05:56:53.403Z,0
2022-11-27T05:57:55.824Z,0
2022-11-27T06:00:01.273Z,0
2022-11-27T06:01:04.389Z,0
2022-11-27T06:02:07.914Z,0
2022-11-27T06:03:11.014Z,0
2022-11-27T06:05:17.370Z,0
2022-11-27T06:07:24.305Z,0
2022-11-27T06:08:28.190Z,0
2022-11-27T06:10:34.457Z,0
2022-11-27T06:12:40.447Z,0
2022-11-27T06:13:44.151Z,0
2022-11-27T06:14:46.917Z,0
2022-11-27T06:15:49.769Z,0
2022-11-27T06:17:54.853Z,0
2022-11-27T06:18:57.622Z,0
2022-11-27T06:20:00.385Z,0
2022-11-27T06:21:03.720Z,0
2022-11-27T06:23:08.838Z,0
2022-11-27T06:24:11.794Z,0
2022-11-27T06:25:15.419Z,0
2022-11-27T06:26:18.607Z,0
2022-11-27T06:28:23.833Z,0
2022-11-27T06:29:27.158Z,0
2022-11-27T06:30:30.560Z,0
2022-11-27T06:31:34.776Z,0
2022-11-27T06:33:40.773Z,0
2022-11-27T06:35:46.916Z,0
2022-11-27T06:36:50.318Z,0
2022-11-27T06:38:57.151Z,0
2022-11-27T06:41:04.080Z,0
2022-11-27T06:43:09.386Z,0
2022-11-27T06:44:13.181Z,0
2022-11-27T06:46:19.364Z,1
2022-11-27T06:48:25.237Z,1
2022-11-27T06:50:31.357Z,1
2022-11-27T06:51:34.237Z,1
2022-11-27T06:52:42.547Z,1
2022-11-27T06:53:45.970Z,1
2022-11-27T06:55:52.366Z,1
2022-11-27T06:57:57.983Z,2
2022-11-27T06:59:00.486Z,2
2022-11-27T07:01:06.748Z,2
2022-11-27T07:03:13.393Z,3
2022-11-27T07:05:19.217Z,4
2022-11-27T07:06:21.897Z,4
2022-11-27T07:08:28.087Z,5
2022-11-27T07:10:34.217Z,5
2022-11-27T07:12:46.929Z,6
2022-11-27T07:13:49.857Z,7
2022-11-27T07:15:56.347Z,7
2022-11-27T07:18:02.257Z,8
2022-11-27T07:19:05.543Z,9
2022-11-27T07:20:08.511Z,9
2022-11-27T07:21:10.654Z,10
2022-11-27T07:23:16.033Z,11
2022-11-27T07:24:18.822Z,12
2022-11-27T07:25:21.672Z,13
2022-11-27T07:26:24.800Z,14
2022-11-27T07:28:31.458Z,16
2022-11-27T07:30:37.401Z,17
2022-11-27T07:31:40.996Z,17
2022-11-27T07:33:46.409Z,19
2022-11-27T07:35:52.057Z,22
2022-11-27T07:37:57.823Z,25
2022-11-27T07:39:00.886Z,25
2022-11-27T07:41:08.550Z,26
2022-11-27T07:42:41.098Z,29
2022-11-27T07:43:44.942Z,29
2022-11-27T07:44:48.871Z,31
2022-11-27T07:45:52.152Z,33
2022-11-27T07:46:55.885Z,33
2022-11-27T07:49:02.281Z,37
2022-11-27T07:50:04.783Z,37
2022-11-27T07:51:08.411Z,39
2022-11-27T07:52:11.463Z,37
2022-11-27T07:54:16.112Z,42
2022-11-27T07:55:19.183Z,40
2022-11-27T07:56:23.169Z,42
2022-11-27T07:57:26.544Z,41
2022-11-27T07:59:33.863Z,42
2022-11-27T08:01:40.739Z,44
2022-11-27T08:02:43.688Z,35
2022-11-27T08:04:49.772Z,33
2022-11-27T08:06:55.981Z,36
2022-11-27T08:07:59.697Z,33
2022-11-27T08:09:02.491Z,35
2022-11-27T08:10:05.316Z,41
2022-11-27T08:12:10.748Z,38
2022-11-27T08:13:13.580Z,35
2022-11-27T08:14:16.991Z,38
2022-11-27T08:15:20.893Z,34
2022-11-27T08:17:28.544Z,34
2022-11-27T08:19:34.189Z,32
2022-11-27T08:20:36.126Z,36
2022-11-27T08:22:41.996Z,36
2022-11-27T08:24:47.308Z,31
2022-11-27T08:26:52.304Z,30
2022-11-27T08:27:55.380Z,35
2022-11-27T08:30:01.637Z,34
2022-11-27T08:32:08.989Z,35
2022-11-27T08:34:14.957Z,39
2022-11-27T08:35:18.038Z,38
2022-11-27T08:37:24.545Z,44
2022-11-27T08:39:31.127Z,36
2022-11-27T08:41:38.163Z,34
2022-11-27T08:42:41.565Z,36
2022-11-27T08:44:47.661Z,35
2022-11-27T08:46:55.257Z,36
2022-11-27T08:49:01.396Z,39
2022-11-27T08:50:04.293Z,36
2022-11-27T08:52:10.005Z,39
2022-11-27T08:54:16.097Z,36
2022-11-27T08:56:21.461Z,37
2022-11-27T08:57:24.797Z,43
2022-11-27T08:59:30.267Z,49
2022-11-27T09:01:36.472Z,40
2022-11-27T09:03:43.784Z,47
2022-11-27T09:04:47.146Z,48
2022-11-27T09:07:00.589Z,44
2022-11-27T09:08:03.688Z,52
2022-11-27T09:09:07.323Z,39
2022-11-27T09:11:13.887Z,44
2022-11-27T09:12:16.864Z,37
2022-11-27T09:13:19.653Z,37
2022-11-27T09:14:22.432Z,36
2022-11-27T09:16:29.651Z,41
2022-11-27T09:17:33.110Z,38
2022-11-27T09:18:36.708Z,37
2022-11-27T09:19:40.920Z,40
2022-11-27T09:21:46.985Z,42
2022-11-27T09:23:53.029Z,45
2022-11-27T09:24:56.357Z,54
2022-11-27T09:27:02.322Z,53
2022-11-27T09:29:08.534Z,49
2022-11-27T09:31:14.193Z,58
2022-11-27T09:32:17.398Z,58
2022-11-27T09:34:25.125Z,65
2022-11-27T09:36:31.979Z,65
2022-11-27T09:38:38.164Z,84
2022-11-27T09:39:40.297Z,73
2022-11-27T09:41:46.488Z,69
2022-11-27T09:42:49.672Z,85
2022-11-27T09:44:55.564Z,75
2022-11-27T09:47:02.166Z,94
2022-11-27T09:49:08.260Z,94
2022-11-27T09:50:12.174Z,108
2022-11-27T09:52:18.229Z,78
2022-11-27T09:54:24.666Z,59
2022-11-27T09:55:27.436Z,60
2022-11-27T09:57:33.263Z,67
2022-11-27T09:59:39.297Z,55
2022-11-27T10:00:42.740Z,59
2022-11-27T10:01:53.174Z,51
2022-11-27T10:02:57.588Z,49
2022-11-27T10:05:22.804Z,62
2022-11-27T10:07:31.559Z,55
2022-11-27T10:08:33.904Z,61
2022-11-27T10:10:40.103Z,55
2022-11-27T10:11:43.439Z,49
2022-11-27T10:13:50.039Z,55
2022-11-27T10:14:53.114Z,57
2022-11-27T10:15:56.184Z,57
2022-11-27T10:16:59.174Z,55
2022-11-27T10:19:05.410Z,51
2022-11-27T10:20:08.998Z,52
